Pingyin, China
Current Conditions -  °F | °C
As of 5:00 PM on Friday 31 Oct 2014 (Local Time) from ZSJN Reporting Station
Haze Haze  
Wind Chill: 61°   Ceiling: 5000
Heat Index: 61°   Visibility: 3mi
Dew Point: 54°   Wind: 2mph
Humidity: 77%   Direction: NA
Pressure: 30.03"   Gusts: NA
Location:  36.28°N, 116.43°E
Report Text: ZSJN 310900Z VRB01MPS 5000 BR BKN050 16/12 Q1017 NOSIG
Loading
Personal Weather Stations






























Interactive Weather Map
Tropical Storm Tracking
New forecast layout! Learn more

10-Day Weather Forecast

Advertisements
Track Severe Weather on mobile